sensor_id;sensor_type;location;lat;lon;timestamp;P1;durP1;ratioP1;P2;durP2;ratioP2
15104;SDS011;7653;48.994;9.212;2022-10-29T00:01:46;8.60;;;3.93;;
15104;SDS011;7653;48.994;9.212;2022-10-29T00:04:11;11.10;;;4.00;;
15104;SDS011;7653;48.994;9.212;2022-10-29T00:06:37;9.70;;;4.00;;
15104;SDS011;7653;48.994;9.212;2022-10-29T00:09:03;9.00;;;3.80;;
15104;SDS011;7653;48.994;9.212;2022-10-29T00:11:29;15.63;;;4.17;;
15104;SDS011;7653;48.994;9.212;2022-10-29T00:13:56;11.23;;;4.17;;
15104;SDS011;7653;48.994;9.212;2022-10-29T00:16:23;8.23;;;3.97;;
15104;SDS011;7653;48.994;9.212;2022-10-29T00:18:53;7.83;;;3.93;;
15104;SDS011;7653;48.994;9.212;2022-10-29T00:21:19;8.57;;;3.80;;
15104;SDS011;7653;48.994;9.212;2022-10-29T00:23:47;7.63;;;4.00;;
15104;SDS011;7653;48.994;9.212;2022-10-29T00:26:13;9.33;;;3.83;;
15104;SDS011;7653;48.994;9.212;2022-10-29T00:28:40;8.67;;;4.33;;
15104;SDS011;7653;48.994;9.212;2022-10-29T00:31:07;13.17;;;4.07;;
15104;SDS011;7653;48.994;9.212;2022-10-29T00:33:35;7.93;;;3.83;;
15104;SDS011;7653;48.994;9.212;2022-10-29T00:38:33;9.77;;;3.90;;
15104;SDS011;7653;48.994;9.212;2022-10-29T00:40:59;7.43;;;3.63;;
15104;SDS011;7653;48.994;9.212;2022-10-29T00:43:25;8.20;;;4.27;;
15104;SDS011;7653;48.994;9.212;2022-10-29T00:45:53;9.63;;;3.87;;
15104;SDS011;7653;48.994;9.212;2022-10-29T00:48:24;7.10;;;4.10;;
15104;SDS011;7653;48.994;9.212;2022-10-29T00:50:52;11.60;;;4.40;;
15104;SDS011;7653;48.994;9.212;2022-10-29T00:53:18;8.77;;;3.80;;
15104;SDS011;7653;48.994;9.212;2022-10-29T00:55:46;11.83;;;4.47;;
15104;SDS011;7653;48.994;9.212;2022-10-29T00:58:12;7.90;;;3.97;;
15104;SDS011;7653;48.994;9.212;2022-10-29T01:00:38;8.50;;;3.93;;
15104;SDS011;7653;48.994;9.212;2022-10-29T01:03:04;7.83;;;3.80;;
15104;SDS011;7653;48.994;9.212;2022-10-29T01:05:31;10.70;;;4.00;;
15104;SDS011;7653;48.994;9.212;2022-10-29T01:07:58;5.90;;;3.90;;
15104;SDS011;7653;48.994;9.212;2022-10-29T01:11:08;9.47;;;4.00;;
15104;SDS011;7653;48.994;9.212;2022-10-29T01:18:36;8.03;;;3.47;;
15104;SDS011;7653;48.994;9.212;2022-10-29T01:32:12;12.13;;;4.03;;
15104;SDS011;7653;48.994;9.212;2022-10-29T01:35:01;9.10;;;3.80;;
15104;SDS011;7653;48.994;9.212;2022-10-29T01:43:23;6.10;;;3.63;;
15104;SDS011;7653;48.994;9.212;2022-10-29T01:45:55;10.97;;;3.97;;
15104;SDS011;7653;48.994;9.212;2022-10-29T01:48:32;9.17;;;3.83;;
15104;SDS011;7653;48.994;9.212;2022-10-29T01:51:02;9.63;;;4.13;;
15104;SDS011;7653;48.994;9.212;2022-10-29T01:53:33;12.13;;;5.20;;
15104;SDS011;7653;48.994;9.212;2022-10-29T01:56:01;7.13;;;3.83;;
15104;SDS011;7653;48.994;9.212;2022-10-29T01:58:27;10.73;;;4.40;;
15104;SDS011;7653;48.994;9.212;2022-10-29T02:09:12;11.07;;;4.37;;
15104;SDS011;7653;48.994;9.212;2022-10-29T02:14:47;11.60;;;4.10;;
15104;SDS011;7653;48.994;9.212;2022-10-29T02:17:23;10.30;;;3.93;;
15104;SDS011;7653;48.994;9.212;2022-10-29T02:19:49;8.63;;;4.00;;
15104;SDS011;7653;48.994;9.212;2022-10-29T02:22:15;10.13;;;4.43;;
15104;SDS011;7653;48.994;9.212;2022-10-29T02:24:40;9.73;;;4.03;;
15104;SDS011;7653;48.994;9.212;2022-10-29T02:27:06;9.67;;;3.77;;
15104;SDS011;7653;48.994;9.212;2022-10-29T02:29:32;10.20;;;3.90;;
15104;SDS011;7653;48.994;9.212;2022-10-29T02:31:57;6.30;;;3.93;;
15104;SDS011;7653;48.994;9.212;2022-10-29T02:34:23;9.10;;;3.77;;
15104;SDS011;7653;48.994;9.212;2022-10-29T02:36:49;8.90;;;4.23;;
15104;SDS011;7653;48.994;9.212;2022-10-29T02:39:15;8.70;;;4.40;;
15104;SDS011;7653;48.994;9.212;2022-10-29T02:41:40;7.43;;;4.17;;
15104;SDS011;7653;48.994;9.212;2022-10-29T02:44:06;8.40;;;4.20;;
15104;SDS011;7653;48.994;9.212;2022-10-29T02:46:31;6.23;;;3.63;;
15104;SDS011;7653;48.994;9.212;2022-10-29T02:49:00;8.63;;;4.07;;
15104;SDS011;7653;48.994;9.212;2022-10-29T02:51:26;6.83;;;4.03;;
15104;SDS011;7653;48.994;9.212;2022-10-29T02:53:52;7.73;;;3.90;;
15104;SDS011;7653;48.994;9.212;2022-10-29T02:56:17;7.77;;;4.00;;
15104;SDS011;7653;48.994;9.212;2022-10-29T02:58:43;10.13;;;3.90;;
15104;SDS011;7653;48.994;9.212;2022-10-29T03:01:09;7.43;;;4.17;;
15104;SDS011;7653;48.994;9.212;2022-10-29T03:03:35;9.37;;;3.50;;
15104;SDS011;7653;48.994;9.212;2022-10-29T03:06:00;11.17;;;3.90;;
15104;SDS011;7653;48.994;9.212;2022-10-29T03:08:26;6.70;;;3.70;;
15104;SDS011;7653;48.994;9.212;2022-10-29T03:10:53;8.97;;;3.90;;
15104;SDS011;7653;48.994;9.212;2022-10-29T03:13:19;11.13;;;4.07;;
15104;SDS011;7653;48.994;9.212;2022-10-29T03:15:45;9.33;;;4.47;;
15104;SDS011;7653;48.994;9.212;2022-10-29T03:18:11;12.43;;;4.30;;
15104;SDS011;7653;48.994;9.212;2022-10-29T03:20:36;8.17;;;4.40;;
15104;SDS011;7653;48.994;9.212;2022-10-29T03:23:02;9.93;;;4.57;;
15104;SDS011;7653;48.994;9.212;2022-10-29T03:25:28;16.43;;;4.67;;
15104;SDS011;7653;48.994;9.212;2022-10-29T03:27:53;10.87;;;4.50;;
15104;SDS011;7653;48.994;9.212;2022-10-29T03:30:19;9.20;;;4.53;;
15104;SDS011;7653;48.994;9.212;2022-10-29T03:32:47;5.97;;;3.87;;
15104;SDS011;7653;48.994;9.212;2022-10-29T03:35:13;10.53;;;4.30;;
15104;SDS011;7653;48.994;9.212;2022-10-29T03:37:39;10.10;;;3.90;;
15104;SDS011;7653;48.994;9.212;2022-10-29T03:40:06;7.73;;;4.13;;
15104;SDS011;7653;48.994;9.212;2022-10-29T03:42:32;8.70;;;4.23;;
15104;SDS011;7653;48.994;9.212;2022-10-29T03:44:58;8.10;;;4.50;;
15104;SDS011;7653;48.994;9.212;2022-10-29T03:47:25;9.30;;;4.30;;
15104;SDS011;7653;48.994;9.212;2022-10-29T03:49:52;8.13;;;3.73;;
15104;SDS011;7653;48.994;9.212;2022-10-29T03:52:19;10.43;;;4.50;;
15104;SDS011;7653;48.994;9.212;2022-10-29T03:54:45;10.87;;;4.53;;
15104;SDS011;7653;48.994;9.212;2022-10-29T03:57:10;10.30;;;4.37;;
15104;SDS011;7653;48.994;9.212;2022-10-29T03:59:36;10.80;;;4.37;;
15104;SDS011;7653;48.994;9.212;2022-10-29T04:02:02;8.27;;;4.17;;
15104;SDS011;7653;48.994;9.212;2022-10-29T04:04:27;7.07;;;4.53;;
15104;SDS011;7653;48.994;9.212;2022-10-29T04:06:53;6.73;;;4.30;;
15104;SDS011;7653;48.994;9.212;2022-10-29T04:09:18;10.10;;;4.40;;
15104;SDS011;7653;48.994;9.212;2022-10-29T04:11:44;11.27;;;4.87;;
15104;SDS011;7653;48.994;9.212;2022-10-29T04:14:10;11.07;;;4.20;;
15104;SDS011;7653;48.994;9.212;2022-10-29T04:16:37;10.37;;;4.07;;
15104;SDS011;7653;48.994;9.212;2022-10-29T04:19:02;9.90;;;4.67;;
15104;SDS011;7653;48.994;9.212;2022-10-29T04:21:28;5.40;;;3.90;;
15104;SDS011;7653;48.994;9.212;2022-10-29T04:23:54;11.20;;;4.10;;
15104;SDS011;7653;48.994;9.212;2022-10-29T04:26:19;7.13;;;4.43;;
15104;SDS011;7653;48.994;9.212;2022-10-29T04:28:48;6.80;;;4.40;;
15104;SDS011;7653;48.994;9.212;2022-10-29T04:31:15;8.67;;;4.70;;
15104;SDS011;7653;48.994;9.212;2022-10-29T04:33:41;9.50;;;4.17;;
15104;SDS011;7653;48.994;9.212;2022-10-29T04:36:06;8.73;;;4.23;;
15104;SDS011;7653;48.994;9.212;2022-10-29T04:38:32;9.47;;;4.10;;
15104;SDS011;7653;48.994;9.212;2022-10-29T04:40:58;9.30;;;4.20;;
15104;SDS011;7653;48.994;9.212;2022-10-29T04:43:25;10.90;;;4.43;;
15104;SDS011;7653;48.994;9.212;2022-10-29T04:45:52;8.93;;;3.50;;
15104;SDS011;7653;48.994;9.212;2022-10-29T04:48:19;5.07;;;3.53;;
15104;SDS011;7653;48.994;9.212;2022-10-29T04:50:45;9.30;;;4.03;;
15104;SDS011;7653;48.994;9.212;2022-10-29T04:53:12;8.07;;;4.20;;
15104;SDS011;7653;48.994;9.212;2022-10-29T04:55:38;14.30;;;3.90;;
15104;SDS011;7653;48.994;9.212;2022-10-29T04:58:04;6.83;;;3.93;;
15104;SDS011;7653;48.994;9.212;2022-10-29T05:00:30;11.27;;;4.47;;
15104;SDS011;7653;48.994;9.212;2022-10-29T05:02:56;8.17;;;4.60;;
15104;SDS011;7653;48.994;9.212;2022-10-29T05:05:22;9.10;;;4.37;;
15104;SDS011;7653;48.994;9.212;2022-10-29T05:07:48;7.63;;;4.17;;
15104;SDS011;7653;48.994;9.212;2022-10-29T05:10:19;8.30;;;4.30;;
15104;SDS011;7653;48.994;9.212;2022-10-29T05:12:45;10.50;;;4.53;;
15104;SDS011;7653;48.994;9.212;2022-10-29T05:15:10;11.07;;;4.70;;
15104;SDS011;7653;48.994;9.212;2022-10-29T05:17:36;9.10;;;5.10;;
15104;SDS011;7653;48.994;9.212;2022-10-29T05:20:03;10.23;;;4.50;;
15104;SDS011;7653;48.994;9.212;2022-10-29T05:22:29;10.90;;;5.07;;
15104;SDS011;7653;48.994;9.212;2022-10-29T05:24:54;9.53;;;4.20;;
15104;SDS011;7653;48.994;9.212;2022-10-29T05:27:20;11.00;;;4.63;;
15104;SDS011;7653;48.994;9.212;2022-10-29T05:29:45;9.13;;;4.37;;
15104;SDS011;7653;48.994;9.212;2022-10-29T05:32:11;9.07;;;5.07;;
15104;SDS011;7653;48.994;9.212;2022-10-29T05:34:36;10.83;;;5.00;;
15104;SDS011;7653;48.994;9.212;2022-10-29T05:37:02;8.93;;;4.43;;
15104;SDS011;7653;48.994;9.212;2022-10-29T05:39:29;17.67;;;4.93;;
15104;SDS011;7653;48.994;9.212;2022-10-29T05:41:55;10.43;;;4.53;;
15104;SDS011;7653;48.994;9.212;2022-10-29T05:44:21;7.93;;;4.63;;
15104;SDS011;7653;48.994;9.212;2022-10-29T05:46:49;8.70;;;3.77;;
15104;SDS011;7653;48.994;9.212;2022-10-29T05:49:15;6.93;;;3.97;;
15104;SDS011;7653;48.994;9.212;2022-10-29T05:51:40;7.60;;;3.77;;
15104;SDS011;7653;48.994;9.212;2022-10-29T05:54:06;7.27;;;3.80;;
15104;SDS011;7653;48.994;9.212;2022-10-29T05:56:31;14.30;;;4.40;;
15104;SDS011;7653;48.994;9.212;2022-10-29T05:58:57;9.00;;;4.40;;
15104;SDS011;7653;48.994;9.212;2022-10-29T06:01:23;8.90;;;4.03;;
15104;SDS011;7653;48.994;9.212;2022-10-29T06:03:48;7.80;;;3.50;;
15104;SDS011;7653;48.994;9.212;2022-10-29T06:06:14;9.40;;;4.20;;
15104;SDS011;7653;48.994;9.212;2022-10-29T06:08:39;10.23;;;4.23;;
15104;SDS011;7653;48.994;9.212;2022-10-29T06:11:05;9.50;;;4.10;;
15104;SDS011;7653;48.994;9.212;2022-10-29T06:13:31;8.00;;;3.87;;
15104;SDS011;7653;48.994;9.212;2022-10-29T06:15:57;10.67;;;4.07;;
15104;SDS011;7653;48.994;9.212;2022-10-29T06:18:24;8.93;;;4.23;;
15104;SDS011;7653;48.994;9.212;2022-10-29T06:20:51;7.53;;;4.77;;
15104;SDS011;7653;48.994;9.212;2022-10-29T06:23:17;10.30;;;4.50;;
15104;SDS011;7653;48.994;9.212;2022-10-29T06:25:43;11.30;;;4.80;;
15104;SDS011;7653;48.994;9.212;2022-10-29T06:28:09;7.53;;;3.90;;
15104;SDS011;7653;48.994;9.212;2022-10-29T06:30:36;7.07;;;4.03;;
15104;SDS011;7653;48.994;9.212;2022-10-29T06:33:02;7.20;;;5.00;;
15104;SDS011;7653;48.994;9.212;2022-10-29T06:35:28;5.47;;;3.83;;
15104;SDS011;7653;48.994;9.212;2022-10-29T06:37:55;7.90;;;4.27;;
15104;SDS011;7653;48.994;9.212;2022-10-29T06:40:21;11.20;;;4.60;;
15104;SDS011;7653;48.994;9.212;2022-10-29T06:42:46;11.50;;;4.70;;
15104;SDS011;7653;48.994;9.212;2022-10-29T06:45:12;7.67;;;3.93;;
15104;SDS011;7653;48.994;9.212;2022-10-29T06:47:42;10.77;;;4.60;;
15104;SDS011;7653;48.994;9.212;2022-10-29T06:50:09;7.00;;;4.03;;
15104;SDS011;7653;48.994;9.212;2022-10-29T06:52:36;10.70;;;4.63;;
15104;SDS011;7653;48.994;9.212;2022-10-29T06:55:02;6.83;;;4.43;;
15104;SDS011;7653;48.994;9.212;2022-10-29T06:57:29;7.47;;;4.33;;
15104;SDS011;7653;48.994;9.212;2022-10-29T06:59:55;9.00;;;3.90;;
15104;SDS011;7653;48.994;9.212;2022-10-29T07:02:21;9.03;;;4.33;;
15104;SDS011;7653;48.994;9.212;2022-10-29T07:04:49;14.10;;;4.57;;
15104;SDS011;7653;48.994;9.212;2022-10-29T07:07:15;7.47;;;3.73;;
15104;SDS011;7653;48.994;9.212;2022-10-29T07:09:40;8.43;;;4.33;;
15104;SDS011;7653;48.994;9.212;2022-10-29T07:12:07;15.10;;;4.70;;
15104;SDS011;7653;48.994;9.212;2022-10-29T07:14:33;9.57;;;4.53;;
15104;SDS011;7653;48.994;9.212;2022-10-29T07:16:58;10.20;;;4.67;;
15104;SDS011;7653;48.994;9.212;2022-10-29T07:19:24;9.50;;;5.43;;
15104;SDS011;7653;48.994;9.212;2022-10-29T07:21:50;11.07;;;5.07;;
15104;SDS011;7653;48.994;9.212;2022-10-29T07:24:16;11.43;;;5.67;;
15104;SDS011;7653;48.994;9.212;2022-10-29T07:26:42;9.37;;;4.33;;
15104;SDS011;7653;48.994;9.212;2022-10-29T07:29:08;8.10;;;4.17;;
15104;SDS011;7653;48.994;9.212;2022-10-29T07:31:34;11.97;;;4.87;;
15104;SDS011;7653;48.994;9.212;2022-10-29T07:34:00;12.27;;;4.83;;
15104;SDS011;7653;48.994;9.212;2022-10-29T07:36:26;12.90;;;5.23;;
15104;SDS011;7653;48.994;9.212;2022-10-29T07:38:54;10.20;;;4.73;;
15104;SDS011;7653;48.994;9.212;2022-10-29T07:41:19;9.90;;;4.80;;
15104;SDS011;7653;48.994;9.212;2022-10-29T07:43:45;9.83;;;5.07;;
15104;SDS011;7653;48.994;9.212;2022-10-29T07:46:10;12.93;;;4.70;;
15104;SDS011;7653;48.994;9.212;2022-10-29T07:48:36;10.43;;;5.07;;
15104;SDS011;7653;48.994;9.212;2022-10-29T07:51:02;9.83;;;4.93;;
15104;SDS011;7653;48.994;9.212;2022-10-29T07:53:28;9.20;;;5.47;;
15104;SDS011;7653;48.994;9.212;2022-10-29T07:55:55;11.70;;;5.40;;
15104;SDS011;7653;48.994;9.212;2022-10-29T07:58:22;9.43;;;4.90;;
15104;SDS011;7653;48.994;9.212;2022-10-29T08:00:49;11.13;;;5.00;;
15104;SDS011;7653;48.994;9.212;2022-10-29T08:03:15;9.87;;;5.40;;
15104;SDS011;7653;48.994;9.212;2022-10-29T08:05:41;15.13;;;5.13;;
15104;SDS011;7653;48.994;9.212;2022-10-29T08:08:06;8.03;;;5.03;;
15104;SDS011;7653;48.994;9.212;2022-10-29T08:10:33;10.27;;;5.40;;
15104;SDS011;7653;48.994;9.212;2022-10-29T08:13:00;14.03;;;5.47;;
15104;SDS011;7653;48.994;9.212;2022-10-29T08:15:28;12.37;;;5.00;;
15104;SDS011;7653;48.994;9.212;2022-10-29T08:17:55;14.47;;;5.80;;
15104;SDS011;7653;48.994;9.212;2022-10-29T08:20:22;13.17;;;5.10;;
15104;SDS011;7653;48.994;9.212;2022-10-29T08:22:53;16.90;;;5.77;;
15104;SDS011;7653;48.994;9.212;2022-10-29T08:25:19;9.50;;;5.23;;
15104;SDS011;7653;48.994;9.212;2022-10-29T08:27:44;9.07;;;5.00;;
15104;SDS011;7653;48.994;9.212;2022-10-29T08:30:21;11.20;;;5.03;;
15104;SDS011;7653;48.994;9.212;2022-10-29T08:32:47;9.70;;;4.93;;
15104;SDS011;7653;48.994;9.212;2022-10-29T08:35:13;7.80;;;5.00;;
15104;SDS011;7653;48.994;9.212;2022-10-29T08:37:42;12.50;;;5.23;;
15104;SDS011;7653;48.994;9.212;2022-10-29T08:40:12;10.73;;;5.30;;
15104;SDS011;7653;48.994;9.212;2022-10-29T08:46:01;8.67;;;4.50;;
15104;SDS011;7653;48.994;9.212;2022-10-29T08:51:00;10.53;;;4.97;;
15104;SDS011;7653;48.994;9.212;2022-10-29T08:53:38;10.63;;;4.77;;
15104;SDS011;7653;48.994;9.212;2022-10-29T08:56:11;8.43;;;4.83;;
15104;SDS011;7653;48.994;9.212;2022-10-29T08:59:04;8.93;;;5.30;;
15104;SDS011;7653;48.994;9.212;2022-10-29T09:01:33;12.17;;;5.00;;
15104;SDS011;7653;48.994;9.212;2022-10-29T09:04:00;8.07;;;5.07;;
15104;SDS011;7653;48.994;9.212;2022-10-29T09:09:25;8.57;;;4.97;;
15104;SDS011;7653;48.994;9.212;2022-10-29T09:22:57;8.17;;;4.50;;
15104;SDS011;7653;48.994;9.212;2022-10-29T09:25:42;9.43;;;4.33;;
15104;SDS011;7653;48.994;9.212;2022-10-29T09:31:20;12.27;;;5.10;;
15104;SDS011;7653;48.994;9.212;2022-10-29T09:33:50;6.83;;;4.63;;
15104;SDS011;7653;48.994;9.212;2022-10-29T09:36:18;10.00;;;4.50;;
15104;SDS011;7653;48.994;9.212;2022-10-29T09:38:50;10.87;;;4.53;;
15104;SDS011;7653;48.994;9.212;2022-10-29T09:41:21;11.63;;;4.90;;
15104;SDS011;7653;48.994;9.212;2022-10-29T09:43:51;13.27;;;5.57;;
15104;SDS011;7653;48.994;9.212;2022-10-29T09:54:09;9.60;;;4.57;;
15104;SDS011;7653;48.994;9.212;2022-10-29T09:56:38;7.37;;;4.50;;
15104;SDS011;7653;48.994;9.212;2022-10-29T10:01:50;7.60;;;3.67;;
15104;SDS011;7653;48.994;9.212;2022-10-29T10:07:15;10.13;;;4.40;;
15104;SDS011;7653;48.994;9.212;2022-10-29T10:09:49;7.50;;;3.97;;
15104;SDS011;7653;48.994;9.212;2022-10-29T10:12:20;15.53;;;5.00;;
15104;SDS011;7653;48.994;9.212;2022-10-29T10:15:05;11.50;;;4.60;;
15104;SDS011;7653;48.994;9.212;2022-10-29T10:23:01;10.30;;;4.10;;
15104;SDS011;7653;48.994;9.212;2022-10-29T10:25:52;11.40;;;4.67;;
15104;SDS011;7653;48.994;9.212;2022-10-29T10:28:20;10.77;;;4.57;;
15104;SDS011;7653;48.994;9.212;2022-10-29T10:33:34;9.07;;;4.20;;
15104;SDS011;7653;48.994;9.212;2022-10-29T10:36:05;9.53;;;3.87;;
15104;SDS011;7653;48.994;9.212;2022-10-29T10:41:14;8.87;;;4.60;;
15104;SDS011;7653;48.994;9.212;2022-10-29T10:43:45;10.03;;;4.10;;
15104;SDS011;7653;48.994;9.212;2022-10-29T10:46:33;14.40;;;4.60;;
15104;SDS011;7653;48.994;9.212;2022-10-29T10:49:03;11.67;;;4.80;;
15104;SDS011;7653;48.994;9.212;2022-10-29T10:51:31;10.47;;;4.70;;
15104;SDS011;7653;48.994;9.212;2022-10-29T10:54:00;9.57;;;4.20;;
15104;SDS011;7653;48.994;9.212;2022-10-29T10:56:28;8.63;;;3.80;;
15104;SDS011;7653;48.994;9.212;2022-10-29T11:01:37;14.20;;;4.23;;
15104;SDS011;7653;48.994;9.212;2022-10-29T11:04:17;7.70;;;4.10;;
15104;SDS011;7653;48.994;9.212;2022-10-29T11:06:49;10.77;;;4.17;;
15104;SDS011;7653;48.994;9.212;2022-10-29T11:12:05;10.27;;;4.00;;
15104;SDS011;7653;48.994;9.212;2022-10-29T11:14:48;8.63;;;3.90;;
15104;SDS011;7653;48.994;9.212;2022-10-29T11:17:25;10.33;;;4.20;;
15104;SDS011;7653;48.994;9.212;2022-10-29T11:19:51;13.87;;;3.93;;
15104;SDS011;7653;48.994;9.212;2022-10-29T11:26:02;11.27;;;3.47;;
15104;SDS011;7653;48.994;9.212;2022-10-29T11:38:44;9.73;;;3.93;;
15104;SDS011;7653;48.994;9.212;2022-10-29T11:43:45;11.67;;;3.97;;
15104;SDS011;7653;48.994;9.212;2022-10-29T11:51:56;8.87;;;3.70;;
15104;SDS011;7653;48.994;9.212;2022-10-29T11:57:08;9.37;;;4.30;;
15104;SDS011;7653;48.994;9.212;2022-10-29T12:13:02;12.17;;;3.73;;
15104;SDS011;7653;48.994;9.212;2022-10-29T12:18:13;8.03;;;3.30;;
15104;SDS011;7653;48.994;9.212;2022-10-29T12:21:17;10.23;;;3.47;;
15104;SDS011;7653;48.994;9.212;2022-10-29T12:26:41;10.47;;;3.83;;
15104;SDS011;7653;48.994;9.212;2022-10-29T12:34:22;7.00;;;3.10;;
15104;SDS011;7653;48.994;9.212;2022-10-29T12:37:12;8.97;;;3.70;;
15104;SDS011;7653;48.994;9.212;2022-10-29T12:40:08;12.50;;;3.40;;
15104;SDS011;7653;48.994;9.212;2022-10-29T12:42:40;7.13;;;3.17;;
15104;SDS011;7653;48.994;9.212;2022-10-29T12:47:52;8.47;;;3.37;;
15104;SDS011;7653;48.994;9.212;2022-10-29T12:53:05;6.97;;;3.17;;
15104;SDS011;7653;48.994;9.212;2022-10-29T12:55:43;11.27;;;3.83;;
15104;SDS011;7653;48.994;9.212;2022-10-29T13:11:52;10.80;;;3.13;;
15104;SDS011;7653;48.994;9.212;2022-10-29T13:14:27;11.70;;;3.47;;
15104;SDS011;7653;48.994;9.212;2022-10-29T13:19:58;6.97;;;3.17;;
15104;SDS011;7653;48.994;9.212;2022-10-29T13:30:34;13.35;;;3.40;;
15104;SDS011;7653;48.994;9.212;2022-10-29T13:33:01;10.45;;;3.90;;
15104;SDS011;7653;48.994;9.212;2022-10-29T13:38:44;6.40;;;3.08;;
15104;SDS011;7653;48.994;9.212;2022-10-29T13:47:02;11.05;;;3.63;;
15104;SDS011;7653;48.994;9.212;2022-10-29T13:49:38;12.20;;;4.38;;
15104;SDS011;7653;48.994;9.212;2022-10-29T14:18:30;10.65;;;3.35;;
15104;SDS011;7653;48.994;9.212;2022-10-29T14:21:03;8.63;;;3.55;;
15104;SDS011;7653;48.994;9.212;2022-10-29T14:23:31;9.98;;;3.78;;
15104;SDS011;7653;48.994;9.212;2022-10-29T14:26:00;11.65;;;3.38;;
15104;SDS011;7653;48.994;9.212;2022-10-29T14:28:28;7.78;;;3.38;;
15104;SDS011;7653;48.994;9.212;2022-10-29T14:33:40;9.20;;;3.58;;
15104;SDS011;7653;48.994;9.212;2022-10-29T14:36:11;12.90;;;3.72;;
15104;SDS011;7653;48.994;9.212;2022-10-29T14:41:10;8.27;;;2.97;;
15104;SDS011;7653;48.994;9.212;2022-10-29T14:43:38;7.10;;;3.17;;
15104;SDS011;7653;48.994;9.212;2022-10-29T14:46:12;7.03;;;3.30;;
15104;SDS011;7653;48.994;9.212;2022-10-29T14:48:51;10.45;;;4.00;;
15104;SDS011;7653;48.994;9.212;2022-10-29T14:51:32;10.43;;;3.67;;
15104;SDS011;7653;48.994;9.212;2022-10-29T14:54:03;14.65;;;4.30;;
15104;SDS011;7653;48.994;9.212;2022-10-29T14:56:35;9.88;;;3.78;;
15104;SDS011;7653;48.994;9.212;2022-10-29T14:59:17;15.07;;;3.72;;
15104;SDS011;7653;48.994;9.212;2022-10-29T15:01:47;9.07;;;3.35;;
15104;SDS011;7653;48.994;9.212;2022-10-29T15:04:18;9.73;;;3.50;;
15104;SDS011;7653;48.994;9.212;2022-10-29T15:06:50;11.57;;;3.85;;
15104;SDS011;7653;48.994;9.212;2022-10-29T15:09:17;12.65;;;3.90;;
15104;SDS011;7653;48.994;9.212;2022-10-29T15:12:01;8.25;;;3.83;;
15104;SDS011;7653;48.994;9.212;2022-10-29T15:14:35;9.52;;;3.53;;
15104;SDS011;7653;48.994;9.212;2022-10-29T15:17:10;10.10;;;3.67;;
15104;SDS011;7653;48.994;9.212;2022-10-29T15:19:41;8.83;;;3.87;;
15104;SDS011;7653;48.994;9.212;2022-10-29T15:22:10;9.47;;;3.40;;
15104;SDS011;7653;48.994;9.212;2022-10-29T15:24:43;8.77;;;3.60;;
15104;SDS011;7653;48.994;9.212;2022-10-29T15:27:11;11.57;;;4.67;;
15104;SDS011;7653;48.994;9.212;2022-10-29T15:29:43;9.80;;;3.83;;
15104;SDS011;7653;48.994;9.212;2022-10-29T15:32:11;6.73;;;3.87;;
15104;SDS011;7653;48.994;9.212;2022-10-29T15:34:43;14.50;;;3.97;;
15104;SDS011;7653;48.994;9.212;2022-10-29T15:42:22;10.47;;;4.47;;
15104;SDS011;7653;48.994;9.212;2022-10-29T15:45:32;11.77;;;4.07;;
15104;SDS011;7653;48.994;9.212;2022-10-29T15:47:43;9.33;;;4.63;;
15104;SDS011;7653;48.994;9.212;2022-10-29T15:50:13;13.27;;;4.40;;
15104;SDS011;7653;48.994;9.212;2022-10-29T15:52:43;9.97;;;3.90;;
15104;SDS011;7653;48.994;9.212;2022-10-29T15:55:31;5.63;;;3.70;;
15104;SDS011;7653;48.994;9.212;2022-10-29T15:58:03;10.40;;;4.40;;
15104;SDS011;7653;48.994;9.212;2022-10-29T16:00:34;12.80;;;4.43;;
15104;SDS011;7653;48.994;9.212;2022-10-29T16:03:22;10.40;;;4.20;;
15104;SDS011;7653;48.994;9.212;2022-10-29T16:05:48;9.77;;;5.70;;
15104;SDS011;7653;48.994;9.212;2022-10-29T16:08:59;14.27;;;7.17;;
15104;SDS011;7653;48.994;9.212;2022-10-29T16:11:19;14.00;;;6.40;;
15104;SDS011;7653;48.994;9.212;2022-10-29T16:13:47;11.50;;;5.87;;
15104;SDS011;7653;48.994;9.212;2022-10-29T16:16:15;12.53;;;5.23;;
15104;SDS011;7653;48.994;9.212;2022-10-29T16:18:42;10.03;;;5.90;;
15104;SDS011;7653;48.994;9.212;2022-10-29T16:21:13;11.70;;;6.17;;
15104;SDS011;7653;48.994;9.212;2022-10-29T16:23:41;11.77;;;5.17;;
15104;SDS011;7653;48.994;9.212;2022-10-29T16:26:08;9.57;;;5.30;;
15104;SDS011;7653;48.994;9.212;2022-10-29T16:28:39;8.10;;;4.33;;
15104;SDS011;7653;48.994;9.212;2022-10-29T16:31:07;13.97;;;4.87;;
15104;SDS011;7653;48.994;9.212;2022-10-29T16:33:44;16.13;;;9.83;;
15104;SDS011;7653;48.994;9.212;2022-10-29T16:36:13;14.63;;;7.27;;
15104;SDS011;7653;48.994;9.212;2022-10-29T16:38:39;20.83;;;13.60;;
15104;SDS011;7653;48.994;9.212;2022-10-29T16:41:05;14.17;;;10.33;;
15104;SDS011;7653;48.994;9.212;2022-10-29T16:43:30;13.43;;;7.30;;
15104;SDS011;7653;48.994;9.212;2022-10-29T16:45:56;15.97;;;8.67;;
15104;SDS011;7653;48.994;9.212;2022-10-29T16:48:22;13.63;;;7.40;;
15104;SDS011;7653;48.994;9.212;2022-10-29T16:50:47;15.40;;;6.50;;
15104;SDS011;7653;48.994;9.212;2022-10-29T16:53:13;15.27;;;11.47;;
15104;SDS011;7653;48.994;9.212;2022-10-29T16:55:39;11.73;;;7.50;;
15104;SDS011;7653;48.994;9.212;2022-10-29T16:58:05;10.53;;;6.33;;
15104;SDS011;7653;48.994;9.212;2022-10-29T17:00:38;9.50;;;5.27;;
15104;SDS011;7653;48.994;9.212;2022-10-29T17:03:04;8.63;;;4.27;;
15104;SDS011;7653;48.994;9.212;2022-10-29T17:05:34;10.93;;;4.83;;
15104;SDS011;7653;48.994;9.212;2022-10-29T17:08:01;13.73;;;4.73;;
15104;SDS011;7653;48.994;9.212;2022-10-29T17:10:27;10.67;;;4.27;;
15104;SDS011;7653;48.994;9.212;2022-10-29T17:12:56;9.37;;;4.03;;
15104;SDS011;7653;48.994;9.212;2022-10-29T17:15:23;8.07;;;4.40;;
15104;SDS011;7653;48.994;9.212;2022-10-29T17:17:49;8.97;;;4.50;;
15104;SDS011;7653;48.994;9.212;2022-10-29T17:20:14;10.67;;;4.37;;
15104;SDS011;7653;48.994;9.212;2022-10-29T17:22:40;12.57;;;4.43;;
15104;SDS011;7653;48.994;9.212;2022-10-29T17:25:07;8.93;;;4.33;;
15104;SDS011;7653;48.994;9.212;2022-10-29T17:27:33;11.57;;;4.43;;
15104;SDS011;7653;48.994;9.212;2022-10-29T17:30:01;9.07;;;4.63;;
15104;SDS011;7653;48.994;9.212;2022-10-29T17:32:27;6.83;;;4.73;;
15104;SDS011;7653;48.994;9.212;2022-10-29T17:34:56;11.87;;;5.60;;
15104;SDS011;7653;48.994;9.212;2022-10-29T17:37:22;9.63;;;6.10;;
15104;SDS011;7653;48.994;9.212;2022-10-29T17:39:48;10.93;;;5.50;;
15104;SDS011;7653;48.994;9.212;2022-10-29T17:42:14;14.47;;;5.87;;
15104;SDS011;7653;48.994;9.212;2022-10-29T17:44:40;9.87;;;4.80;;
15104;SDS011;7653;48.994;9.212;2022-10-29T17:47:05;10.63;;;5.50;;
15104;SDS011;7653;48.994;9.212;2022-10-29T17:49:31;12.50;;;5.20;;
15104;SDS011;7653;48.994;9.212;2022-10-29T17:51:57;14.93;;;7.73;;
15104;SDS011;7653;48.994;9.212;2022-10-29T17:54:24;16.23;;;10.57;;
15104;SDS011;7653;48.994;9.212;2022-10-29T17:56:51;14.20;;;7.57;;
15104;SDS011;7653;48.994;9.212;2022-10-29T17:59:17;11.63;;;6.37;;
15104;SDS011;7653;48.994;9.212;2022-10-29T18:01:43;10.20;;;6.33;;
15104;SDS011;7653;48.994;9.212;2022-10-29T18:04:09;11.47;;;5.90;;
15104;SDS011;7653;48.994;9.212;2022-10-29T18:06:35;10.57;;;5.30;;
15104;SDS011;7653;48.994;9.212;2022-10-29T18:09:01;11.30;;;5.13;;
15104;SDS011;7653;48.994;9.212;2022-10-29T18:11:27;9.77;;;4.70;;
15104;SDS011;7653;48.994;9.212;2022-10-29T18:13:55;10.73;;;4.87;;
15104;SDS011;7653;48.994;9.212;2022-10-29T18:16:22;9.33;;;4.93;;
15104;SDS011;7653;48.994;9.212;2022-10-29T18:18:50;7.97;;;4.93;;
15104;SDS011;7653;48.994;9.212;2022-10-29T18:21:17;10.57;;;4.90;;
15104;SDS011;7653;48.994;9.212;2022-10-29T18:23:44;11.13;;;5.10;;
15104;SDS011;7653;48.994;9.212;2022-10-29T18:26:24;9.70;;;4.87;;
15104;SDS011;7653;48.994;9.212;2022-10-29T18:28:55;7.90;;;4.70;;
15104;SDS011;7653;48.994;9.212;2022-10-29T18:31:23;11.17;;;4.33;;
15104;SDS011;7653;48.994;9.212;2022-10-29T18:33:51;11.23;;;5.30;;
15104;SDS011;7653;48.994;9.212;2022-10-29T18:36:17;10.40;;;4.83;;
15104;SDS011;7653;48.994;9.212;2022-10-29T18:38:47;11.97;;;4.87;;